Coggon, Iowa
Current Conditions -  °F | °C
As of 8:15 AM on Wednesday 26 Nov 2014 (Local Time) from KMXO Reporting Station
Overcast Overcast  
Wind Chill: -11°   Ceiling: 7500
Heat Index: -5°   Visibility: 7mi
Dew Point: -6°   Wind: 10mph
Humidity: 93%   Direction: 90°E
Pressure: 30.05"   Gusts: NA
Location:  42.28°N, 91.53°W
Report Text: KMXO 261415Z AUTO 09009KT 7SM OVC075 M05/M06 A3005 RMK AO2
Loading
Personal Weather Stations






























Interactive Weather Map New forecast layout! Learn more

10-Day Weather Forecast

Advertisements
Track Severe Weather on mobile